createdAt,value
2022-08-30T11:22:16.333Z,0.82
2022-08-30T11:25:10.175Z,0.70
2022-08-30T11:27:51.470Z,0.60
2022-08-30T11:30:24.625Z,0.60
2022-08-30T11:33:09.447Z,0.80
2022-08-30T11:35:48.650Z,0.80
2022-08-30T11:38:28.468Z,0.82
2022-08-30T11:40:55.348Z,0.80
2022-08-30T11:43:40.333Z,0.88
2022-08-30T11:46:19.485Z,0.80
2022-08-30T11:48:56.189Z,1.02
2022-08-30T11:51:38.226Z,1.60
2022-08-30T11:54:23.904Z,1.30
2022-08-30T11:57:11.839Z,1.70
2022-08-30T11:59:55.838Z,1.20
2022-08-30T12:02:51.709Z,1.58
2022-08-30T12:05:43.105Z,1.50
2022-08-30T12:08:28.489Z,1.63
2022-08-30T12:11:00.114Z,1.10
2022-08-30T12:13:51.227Z,1.00
2022-08-30T12:16:23.849Z,1.20
2022-08-30T12:19:00.234Z,1.10
2022-08-30T12:21:29.164Z,0.90
2022-08-30T12:24:11.844Z,1.00
2022-08-30T12:26:42.057Z,0.90
2022-08-30T12:29:10.038Z,1.00
2022-08-30T12:31:52.020Z,0.90
2022-08-30T12:34:33.762Z,0.90
2022-08-30T12:37:28.648Z,0.95
2022-08-30T12:40:16.660Z,1.25
2022-08-30T12:42:59.249Z,0.80
2022-08-30T12:45:33.362Z,0.85
2022-08-30T12:48:15.146Z,0.80
2022-08-30T12:50:56.240Z,0.82
2022-08-30T12:53:33.729Z,0.70
2022-08-30T12:56:21.204Z,0.95
2022-08-30T12:58:57.486Z,0.82
2022-08-30T13:01:28.755Z,1.00
2022-08-30T13:04:08.455Z,1.02
2022-08-30T13:06:49.962Z,0.90
2022-08-30T13:09:39.041Z,0.80
2022-08-30T13:12:24.807Z,1.00
2022-08-30T13:14:55.905Z,1.00
2022-08-30T13:17:26.723Z,0.90
2022-08-30T13:22:42.157Z,0.80
2022-08-30T13:25:10.865Z,0.77
2022-08-30T13:27:39.880Z,0.90
2022-08-30T13:30:13.341Z,1.10
2022-08-30T13:32:41.001Z,0.90
2022-08-30T13:35:09.397Z,0.98
2022-08-30T13:37:50.338Z,0.90
2022-08-30T13:40:19.462Z,0.90
2022-08-30T13:42:46.802Z,0.80
2022-08-30T13:48:02.661Z,1.25
2022-08-30T13:50:30.601Z,1.77
2022-08-30T13:52:58.211Z,2.17
2022-08-30T13:55:25.342Z,2.65
2022-08-30T13:57:54.384Z,2.42
2022-08-30T14:00:23.569Z,1.90
2022-08-30T14:02:56.096Z,1.55
2022-08-30T14:11:11.818Z,3.35
2022-08-30T14:14:14.576Z,1.88
2022-08-30T14:16:28.714Z,1.65
2022-08-30T14:18:56.597Z,1.83
2022-08-30T14:21:24.775Z,0.90
2022-08-30T14:23:53.288Z,1.00
2022-08-30T14:26:33.085Z,0.80
2022-08-30T14:29:06.123Z,0.70
2022-08-30T14:31:37.454Z,0.80
2022-08-30T14:34:05.250Z,0.73
2022-08-30T14:36:34.892Z,0.70
2022-08-30T14:39:03.276Z,0.93
2022-08-30T14:41:38.893Z,0.90
2022-08-30T14:44:08.429Z,0.75
2022-08-30T14:46:37.761Z,1.13
2022-08-30T14:49:04.730Z,0.80
2022-08-30T14:51:32.966Z,0.70
2022-08-30T14:54:00.938Z,0.60
2022-08-30T14:56:27.940Z,0.88
2022-08-30T14:59:00.536Z,0.77
2022-08-30T15:01:29.354Z,0.80
2022-08-30T15:03:56.880Z,0.80
2022-08-30T15:06:24.246Z,0.98
2022-08-30T15:08:54.547Z,0.85
2022-08-30T15:11:22.757Z,0.93
2022-08-30T15:13:53.005Z,1.00
2022-08-30T15:16:27.249Z,0.90
2022-08-30T15:18:54.771Z,0.95
2022-08-30T15:21:36.833Z,0.95
2022-08-30T15:24:05.317Z,0.85
2022-08-30T15:26:33.335Z,0.90
2022-08-30T15:29:00.317Z,0.80
2022-08-30T15:31:28.961Z,0.90
2022-08-30T15:33:57.083Z,1.10
2022-08-30T15:36:25.415Z,0.98
2022-08-30T15:38:55.802Z,0.90
2022-08-30T15:41:24.579Z,0.90
2022-08-30T15:43:52.865Z,1.10
2022-08-30T15:46:19.879Z,0.98
2022-08-30T15:48:47.774Z,0.82
2022-08-30T15:51:16.831Z,0.88
2022-08-30T15:53:45.321Z,0.93
2022-08-30T15:56:12.668Z,0.88
2022-08-30T15:58:40.760Z,0.90
2022-08-30T16:01:09.117Z,1.35
2022-08-30T16:03:37.813Z,0.90
2022-08-30T16:06:05.082Z,1.08
2022-08-30T16:08:32.046Z,1.02
2022-08-30T16:10:58.994Z,0.75
2022-08-30T16:13:25.942Z,0.80
2022-08-30T16:15:52.997Z,0.70
2022-08-30T16:18:19.990Z,0.60
2022-08-30T16:20:47.090Z,1.00
2022-08-30T16:23:14.006Z,0.68
2022-08-30T16:25:41.495Z,0.65
2022-08-30T16:28:09.500Z,0.90
2022-08-30T16:30:37.105Z,0.70
2022-08-30T16:33:04.293Z,0.90
2022-08-30T16:35:33.274Z,0.70
2022-08-30T16:38:00.797Z,0.80
2022-08-30T16:40:27.856Z,0.80
2022-08-30T16:42:54.810Z,0.70
2022-08-30T16:45:21.844Z,0.82
2022-08-30T16:47:51.109Z,0.80
2022-08-30T16:50:21.562Z,1.00
2022-08-30T16:52:48.512Z,0.90
2022-08-30T16:55:15.818Z,0.80
2022-08-30T16:57:43.576Z,0.80
2022-08-30T17:00:12.985Z,1.73
2022-08-30T17:02:40.835Z,1.20
2022-08-30T17:05:21.678Z,1.70
2022-08-30T17:07:48.708Z,1.75
2022-08-30T17:10:16.019Z,1.30
2022-08-30T17:12:50.141Z,1.50
2022-08-30T17:15:19.554Z,1.40
2022-08-30T17:17:48.267Z,1.23
2022-08-30T17:20:15.943Z,1.60
2022-08-30T17:22:42.916Z,1.55
2022-08-30T17:25:13.359Z,1.80
2022-08-30T17:27:40.829Z,1.30
2022-08-30T17:30:09.718Z,1.45
2022-08-30T17:32:37.106Z,1.10
2022-08-30T17:35:06.074Z,1.15
2022-08-30T17:37:33.420Z,1.10
2022-08-30T17:40:00.743Z,1.30
2022-08-30T17:42:29.844Z,1.20
2022-08-30T17:44:58.686Z,1.10
2022-08-30T17:47:28.315Z,1.08
2022-08-30T17:49:58.101Z,1.13
2022-08-30T17:52:26.353Z,1.38
2022-08-30T17:54:53.605Z,1.40
2022-08-30T17:57:20.627Z,1.20
2022-08-30T17:59:47.599Z,1.40
2022-08-30T18:02:15.321Z,1.40
2022-08-30T18:04:48.594Z,1.30
2022-08-30T18:07:16.172Z,1.38
2022-08-30T18:09:45.635Z,1.30
2022-08-30T18:12:12.866Z,0.90
2022-08-30T18:14:41.096Z,1.33
2022-08-30T18:17:09.131Z,1.10
2022-08-30T18:19:36.215Z,1.20
2022-08-30T18:22:13.825Z,0.95
2022-08-30T18:24:40.898Z,1.13
2022-08-30T18:27:08.165Z,1.13
2022-08-30T18:29:37.676Z,1.15
2022-08-30T18:32:05.762Z,1.02
2022-08-30T18:34:36.216Z,0.90
2022-08-30T18:37:03.194Z,1.13
2022-08-30T18:39:34.613Z,0.90
2022-08-30T18:42:03.436Z,1.20
2022-08-30T18:44:33.617Z,1.25
2022-08-30T18:47:03.819Z,1.00
2022-08-30T18:49:33.935Z,1.00
2022-08-30T18:52:03.093Z,1.00
2022-08-30T18:54:30.425Z,0.85
2022-08-30T18:56:57.393Z,1.05
2022-08-30T18:59:24.530Z,1.00
2022-08-30T19:02:02.862Z,0.90
2022-08-30T19:04:35.123Z,0.80
2022-08-30T19:07:04.195Z,1.08
2022-08-30T19:09:31.294Z,1.00
2022-08-30T19:11:58.271Z,0.95
2022-08-30T19:14:28.150Z,0.95
2022-08-30T19:16:56.559Z,1.10
2022-08-30T19:19:24.358Z,1.10
2022-08-30T19:21:52.063Z,1.10
2022-08-30T19:24:20.418Z,0.90
2022-08-30T19:26:48.691Z,0.82
2022-08-30T19:29:15.759Z,1.13
2022-08-30T19:31:43.996Z,1.00
2022-08-30T19:34:11.466Z,0.90
2022-08-30T19:36:39.828Z,1.00
2022-08-30T19:39:07.016Z,1.00
2022-08-30T19:41:34.088Z,1.00
2022-08-30T19:44:03.186Z,0.82
2022-08-30T19:46:32.467Z,1.10
2022-08-30T19:49:01.287Z,1.00
2022-08-30T19:51:28.412Z,0.95
2022-08-30T19:53:56.377Z,0.90
2022-08-30T19:56:26.334Z,1.35
2022-08-30T19:58:53.423Z,1.00
2022-08-30T20:01:32.335Z,0.70
2022-08-30T20:04:02.358Z,1.02
2022-08-30T20:06:30.668Z,0.90
2022-08-30T20:08:59.841Z,0.85
2022-08-30T20:11:27.998Z,1.20
2022-08-30T20:13:55.330Z,1.13
2022-08-30T20:16:35.481Z,0.90
2022-08-30T20:19:06.557Z,1.20
2022-08-30T20:21:33.920Z,0.95
2022-08-30T20:24:01.226Z,0.90
2022-08-30T20:26:33.841Z,0.90
2022-08-30T20:29:02.615Z,0.80
2022-08-30T20:31:29.814Z,1.00
2022-08-30T20:33:56.947Z,1.00
2022-08-30T20:36:23.937Z,0.90
2022-08-30T20:38:51.207Z,0.90
2022-08-30T20:41:19.915Z,1.00
2022-08-30T20:43:48.889Z,0.90
2022-08-30T20:46:18.687Z,0.93
2022-08-30T20:48:46.547Z,0.90
2022-08-30T20:51:18.846Z,1.00
2022-08-30T20:53:46.543Z,0.95
2022-08-30T20:56:15.662Z,1.60
2022-08-30T20:58:43.531Z,2.22
2022-08-30T21:01:11.942Z,2.25
2022-08-30T21:03:39.527Z,1.35
2022-08-30T21:06:07.582Z,1.10
2022-08-30T21:08:35.127Z,1.15
2022-08-30T21:11:02.750Z,1.00
2022-08-30T21:13:30.404Z,1.05
2022-08-30T21:16:00.642Z,0.88
2022-08-30T21:18:33.210Z,0.90
2022-08-30T21:21:22.750Z,1.42
2022-08-30T21:23:50.629Z,0.90
2022-08-30T21:26:18.647Z,1.10
2022-08-30T21:28:49.322Z,0.90
2022-08-30T21:31:19.548Z,1.00
2022-08-30T21:33:48.471Z,0.85
2022-08-30T21:36:34.875Z,1.25
2022-08-30T21:39:02.592Z,0.90
2022-08-30T21:41:31.605Z,1.00
2022-08-30T21:44:01.053Z,1.15
2022-08-30T21:46:29.660Z,0.98
2022-08-30T21:49:01.580Z,1.10
2022-08-30T21:51:31.851Z,1.20
2022-08-30T21:53:58.899Z,0.93
2022-08-30T21:56:25.928Z,1.02
2022-08-30T21:58:52.878Z,1.20
2022-08-30T22:01:24.370Z,1.00
2022-08-30T22:03:53.716Z,1.02
2022-08-30T22:06:21.020Z,1.13
2022-08-30T22:08:50.139Z,0.90
2022-08-30T22:11:21.958Z,1.00
2022-08-30T22:13:50.513Z,0.70
2022-08-30T22:16:20.946Z,0.85
2022-08-30T22:18:48.491Z,0.88
2022-08-30T22:21:18.217Z,0.85
2022-08-30T22:23:45.517Z,0.88
2022-08-30T22:26:15.111Z,0.90
2022-08-30T22:28:42.267Z,0.80
2022-08-30T22:31:11.915Z,0.70
2022-08-30T22:33:39.604Z,0.90
2022-08-30T22:36:33.418Z,0.90
2022-08-30T22:39:02.098Z,0.90
2022-08-30T22:41:31.693Z,1.00
2022-08-30T22:43:59.029Z,0.80
2022-08-30T22:46:33.925Z,0.73
2022-08-30T22:49:03.312Z,1.05
2022-08-30T22:51:30.729Z,0.80
2022-08-30T22:53:58.078Z,0.80
2022-08-30T22:56:26.209Z,0.90
2022-08-30T22:58:54.502Z,0.70
2022-08-30T23:01:33.471Z,0.68
2022-08-30T23:04:04.202Z,1.00
2022-08-30T23:06:31.727Z,0.70
2022-08-30T23:08:59.182Z,0.77
2022-08-30T23:11:26.784Z,0.80
2022-08-30T23:13:53.895Z,0.70
2022-08-30T23:16:22.128Z,0.80
2022-08-30T23:18:49.691Z,0.93
2022-08-30T23:21:23.599Z,0.85
2022-08-30T23:24:12.381Z,0.90
2022-08-30T23:26:59.677Z,1.00
2022-08-30T23:29:46.270Z,1.77
2022-08-30T23:32:32.395Z,1.00
2022-08-30T23:35:18.187Z,1.10
2022-08-30T23:38:05.577Z,0.90
2022-08-30T23:40:51.222Z,1.35
2022-08-30T23:43:36.838Z,1.15
2022-08-30T23:46:22.511Z,1.27
2022-08-30T23:49:08.640Z,1.48
2022-08-30T23:51:56.742Z,2.22
2022-08-30T23:54:43.193Z,2.10
2022-08-30T23:57:28.831Z,1.73
